createdAt,value
2023-01-13T00:00:48.144Z,49.95
2023-01-13T00:01:48.118Z,51.88
2023-01-13T00:02:48.070Z,54.02
2023-01-13T00:03:48.052Z,54.16
2023-01-13T00:04:48.050Z,51.64
2023-01-13T00:05:48.038Z,53.32
2023-01-13T00:06:48.051Z,53.77
2023-01-13T00:07:48.364Z,52.23
2023-01-13T00:08:48.088Z,52.15
2023-01-13T00:09:48.078Z,51.94
2023-01-13T00:10:48.016Z,49.40
2023-01-13T00:11:48.056Z,49.14
2023-01-13T00:12:49.054Z,49.61
2023-01-13T00:13:48.072Z,49.26
2023-01-13T00:14:48.062Z,52.55
2023-01-13T00:15:48.086Z,53.07
2023-01-13T00:16:49.066Z,52.73
2023-01-13T00:17:48.071Z,49.66
2023-01-13T00:18:48.073Z,52.36
2023-01-13T00:19:48.063Z,53.29
2023-01-13T00:20:48.009Z,53.48
2023-01-13T00:21:48.032Z,54.75
2023-01-13T00:22:48.024Z,55.66
2023-01-13T00:23:48.018Z,49.53
2023-01-13T00:24:48.012Z,52.92
2023-01-13T00:25:47.985Z,53.13
2023-01-13T00:26:47.976Z,55.95
2023-01-13T00:27:47.948Z,56.56
2023-01-13T00:28:49.049Z,52.11
2023-01-13T00:29:47.947Z,55.40
2023-01-13T00:30:47.945Z,51.18
2023-01-13T00:31:47.934Z,48.50
2023-01-13T00:32:47.934Z,52.17
2023-01-13T00:33:47.979Z,52.18
2023-01-13T00:34:47.913Z,48.69
2023-01-13T00:35:47.901Z,49.99
2023-01-13T00:36:47.895Z,54.64
2023-01-13T00:37:47.869Z,53.22
2023-01-13T00:38:47.970Z,54.11
2023-01-13T00:39:47.916Z,52.09
2023-01-13T00:40:47.885Z,51.00
2023-01-13T00:41:47.848Z,52.31
2023-01-13T00:42:47.750Z,51.23
2023-01-13T00:43:47.821Z,56.52
2023-01-13T00:44:47.944Z,58.80
2023-01-13T00:45:47.843Z,59.09
2023-01-13T00:46:47.876Z,53.53
2023-01-13T00:47:47.787Z,49.81
2023-01-13T00:48:47.793Z,50.46
2023-01-13T00:49:47.775Z,51.55
2023-01-13T00:50:47.816Z,50.25
2023-01-13T00:51:47.783Z,51.04
2023-01-13T00:52:47.758Z,54.24
2023-01-13T00:53:47.774Z,51.31
2023-01-13T00:54:47.759Z,53.18
2023-01-13T00:55:47.795Z,51.22
2023-01-13T00:56:47.741Z,50.42
2023-01-13T00:57:47.730Z,50.37
2023-01-13T00:58:47.735Z,53.95
2023-01-13T00:59:49.519Z,51.72
2023-01-13T01:00:48.753Z,50.83
2023-01-13T01:01:47.844Z,52.30
2023-01-13T01:02:47.688Z,55.17
2023-01-13T01:03:47.604Z,48.55
2023-01-13T01:04:47.622Z,49.45
2023-01-13T01:05:47.597Z,50.17
2023-01-13T01:06:47.615Z,52.08
2023-01-13T01:07:47.582Z,50.39
2023-01-13T01:08:47.586Z,50.91
2023-01-13T01:09:47.541Z,49.25
2023-01-13T01:10:47.540Z,48.35
2023-01-13T01:11:48.621Z,49.14
2023-01-13T01:12:47.561Z,50.18
2023-01-13T01:13:47.538Z,50.82
2023-01-13T01:14:47.551Z,53.46
2023-01-13T01:15:47.665Z,54.39
2023-01-13T01:16:47.616Z,53.19
2023-01-13T01:17:47.598Z,52.90
2023-01-13T01:18:47.575Z,52.20
2023-01-13T01:19:47.581Z,49.17
2023-01-13T01:20:47.576Z,51.98
2023-01-13T01:21:47.548Z,51.30
2023-01-13T01:22:47.644Z,49.54
2023-01-13T01:23:47.552Z,51.38
2023-01-13T01:24:47.552Z,48.45
2023-01-13T01:25:47.525Z,47.19
2023-01-13T01:26:47.562Z,48.18
2023-01-13T01:27:47.543Z,48.87
2023-01-13T01:28:47.598Z,48.51
2023-01-13T01:29:47.492Z,50.83
2023-01-13T01:30:47.494Z,53.64
2023-01-13T01:31:47.515Z,50.99
2023-01-13T01:32:47.491Z,52.71
2023-01-13T01:33:47.554Z,52.43
2023-01-13T01:34:47.464Z,52.37
2023-01-13T01:35:47.453Z,50.85
2023-01-13T01:36:47.452Z,47.23
2023-01-13T01:37:47.420Z,48.30
2023-01-13T01:38:47.502Z,48.84
2023-01-13T01:39:47.426Z,47.22
2023-01-13T01:40:47.416Z,49.61
2023-01-13T01:41:47.428Z,49.71
2023-01-13T01:42:47.403Z,48.70
2023-01-13T01:43:47.405Z,52.03
2023-01-13T01:44:49.308Z,52.89
2023-01-13T01:45:47.367Z,50.32
2023-01-13T01:46:47.366Z,50.33
2023-01-13T01:47:47.311Z,51.75
2023-01-13T01:48:47.280Z,52.78
2023-01-13T01:49:47.327Z,54.92
2023-01-13T01:50:47.258Z,51.51
2023-01-13T01:51:47.280Z,51.08
2023-01-13T01:52:47.255Z,50.54
2023-01-13T01:53:47.324Z,50.36
2023-01-13T01:54:47.353Z,51.53
2023-01-13T01:55:47.302Z,50.61
2023-01-13T01:56:47.323Z,52.54
2023-01-13T01:57:47.312Z,51.61
2023-01-13T01:58:47.328Z,50.56
2023-01-13T01:59:47.296Z,50.87
2023-01-13T02:00:47.342Z,49.75
2023-01-13T02:01:47.329Z,55.28
2023-01-13T02:02:47.315Z,53.39
2023-01-13T02:03:47.265Z,52.15
2023-01-13T02:04:47.248Z,51.86
2023-01-13T02:05:47.329Z,52.61
2023-01-13T02:06:47.221Z,54.40
2023-01-13T02:07:47.235Z,52.85
2023-01-13T02:08:47.282Z,54.37
2023-01-13T02:09:47.223Z,53.77
2023-01-13T02:10:47.249Z,48.35
2023-01-13T02:11:47.241Z,49.46
2023-01-13T02:12:47.178Z,49.92
2023-01-13T02:13:47.169Z,51.50
2023-01-13T02:14:47.186Z,50.89
2023-01-13T02:15:47.160Z,51.57
2023-01-13T02:16:47.215Z,49.44
2023-01-13T02:17:47.102Z,52.49
2023-01-13T02:18:47.060Z,51.14
2023-01-13T02:19:48.139Z,49.18
2023-01-13T02:20:47.062Z,47.23
2023-01-13T02:21:47.083Z,49.82
2023-01-13T02:22:47.064Z,47.96
2023-01-13T02:23:47.044Z,49.18
2023-01-13T02:24:47.013Z,50.63
2023-01-13T02:25:47.021Z,52.81
2023-01-13T02:26:47.019Z,49.02
2023-01-13T02:27:47.020Z,51.78
2023-01-13T02:28:46.985Z,49.51
2023-01-13T02:29:46.997Z,54.59
2023-01-13T02:30:47.087Z,51.60
2023-01-13T02:31:46.992Z,50.15
2023-01-13T02:32:46.973Z,50.97
2023-01-13T02:33:47.025Z,49.92
2023-01-13T02:34:46.945Z,50.26
2023-01-13T02:35:46.986Z,50.70
2023-01-13T02:36:47.052Z,47.30
2023-01-13T02:37:47.012Z,49.11
2023-01-13T02:38:47.094Z,48.92
2023-01-13T02:39:46.980Z,51.88
2023-01-13T02:40:46.975Z,49.80
2023-01-13T02:41:46.972Z,48.26
2023-01-13T02:42:46.984Z,48.34
2023-01-13T02:43:46.947Z,47.75
2023-01-13T02:44:47.049Z,48.42
2023-01-13T02:45:47.026Z,51.95
2023-01-13T02:46:46.989Z,52.91
2023-01-13T02:47:46.964Z,49.07
2023-01-13T02:48:46.960Z,49.02
2023-01-13T02:49:46.944Z,51.07
2023-01-13T02:50:46.951Z,51.36
2023-01-13T02:51:46.940Z,49.85
2023-01-13T02:52:46.936Z,51.10
2023-01-13T02:53:46.919Z,50.17
2023-01-13T02:54:46.921Z,49.41
2023-01-13T02:55:46.920Z,49.54
2023-01-13T02:56:46.946Z,51.73
2023-01-13T02:57:46.871Z,48.82
2023-01-13T02:58:46.860Z,48.25
2023-01-13T02:59:46.937Z,49.06
2023-01-13T03:00:46.956Z,49.33
2023-01-13T03:01:46.978Z,51.93
2023-01-13T03:02:46.903Z,47.92
2023-01-13T03:03:46.845Z,50.49
2023-01-13T03:04:46.848Z,48.69
2023-01-13T03:05:46.824Z,50.49
2023-01-13T03:06:46.805Z,50.72
2023-01-13T03:07:46.745Z,49.70
2023-01-13T03:08:46.764Z,48.79
2023-01-13T03:09:46.729Z,49.60
2023-01-13T03:10:46.771Z,51.49
2023-01-13T03:11:46.752Z,51.48
2023-01-13T03:12:46.683Z,52.02
2023-01-13T03:13:46.730Z,51.82
2023-01-13T03:14:46.705Z,54.23
2023-01-13T03:15:46.694Z,52.70
2023-01-13T03:16:46.704Z,53.12
2023-01-13T03:17:47.124Z,56.48
2023-01-13T03:18:46.663Z,54.97
2023-01-13T03:19:46.805Z,54.19
2023-01-13T03:20:46.731Z,54.04
2023-01-13T03:21:46.739Z,54.41
2023-01-13T03:22:46.785Z,47.76
2023-01-13T03:23:46.692Z,48.67
2023-01-13T03:24:46.709Z,52.38
2023-01-13T03:25:46.716Z,52.03
2023-01-13T03:26:46.682Z,58.01
2023-01-13T03:27:46.668Z,52.30
2023-01-13T03:28:46.734Z,55.17
2023-01-13T03:29:46.669Z,57.06
2023-01-13T03:30:46.697Z,52.82
2023-01-13T03:31:46.681Z,54.09
2023-01-13T03:32:46.645Z,57.71
2023-01-13T03:33:46.709Z,56.15
2023-01-13T03:34:46.668Z,55.65
2023-01-13T03:35:46.663Z,54.48
2023-01-13T03:36:46.656Z,58.44
2023-01-13T03:37:46.593Z,63.43
2023-01-13T03:38:46.649Z,65.17
2023-01-13T03:39:47.661Z,67.13
2023-01-13T03:40:46.658Z,66.96
2023-01-13T03:41:46.598Z,65.10
2023-01-13T03:42:46.585Z,66.09
2023-01-13T03:43:46.588Z,65.60
2023-01-13T03:44:46.592Z,69.65
2023-01-13T03:45:46.583Z,62.66
2023-01-13T03:46:46.589Z,61.08
2023-01-13T03:47:46.593Z,53.60
2023-01-13T03:48:46.537Z,57.25
2023-01-13T03:49:46.535Z,57.28
2023-01-13T03:50:46.582Z,59.32
2023-01-13T03:51:46.547Z,56.96
2023-01-13T03:52:46.559Z,56.42
2023-01-13T03:53:46.531Z,57.26
2023-01-13T03:54:46.512Z,57.73
2023-01-13T03:55:46.605Z,54.05
2023-01-13T03:56:46.501Z,56.28
2023-01-13T03:57:46.523Z,61.65
2023-01-13T03:58:46.456Z,59.38
2023-01-13T03:59:46.477Z,63.55
2023-01-13T04:00:46.455Z,57.21
2023-01-13T04:01:46.546Z,54.72
2023-01-13T04:02:46.369Z,59.89
2023-01-13T04:03:46.377Z,59.01
2023-01-13T04:04:46.335Z,57.10
2023-01-13T04:05:46.323Z,60.03
2023-01-13T04:06:46.397Z,58.30
2023-01-13T04:07:46.290Z,61.15
2023-01-13T04:08:46.297Z,57.03
2023-01-13T04:09:46.324Z,59.58
2023-01-13T04:10:46.287Z,60.31
2023-01-13T04:11:46.309Z,57.71
2023-01-13T04:12:46.324Z,58.75
2023-01-13T04:13:46.284Z,64.63
2023-01-13T04:14:46.246Z,58.48
2023-01-13T04:15:46.287Z,57.41
2023-01-13T04:16:46.325Z,60.48
2023-01-13T04:17:46.411Z,58.67
2023-01-13T04:18:46.353Z,56.80
2023-01-13T04:19:46.306Z,56.02
2023-01-13T04:20:46.332Z,59.68
2023-01-13T04:21:46.307Z,61.80
2023-01-13T04:22:46.353Z,59.48
2023-01-13T04:23:46.337Z,58.06
2023-01-13T04:24:46.323Z,58.12
2023-01-13T04:25:46.269Z,60.05
2023-01-13T04:26:46.159Z,59.51
2023-01-13T04:27:46.235Z,61.01
2023-01-13T04:28:46.298Z,61.35
2023-01-13T04:29:46.236Z,59.74
2023-01-13T04:30:46.345Z,60.52
2023-01-13T04:31:46.234Z,60.92
2023-01-13T04:32:46.220Z,60.51
2023-01-13T04:33:46.222Z,62.77
2023-01-13T04:34:46.252Z,60.08
2023-01-13T04:35:46.203Z,63.17
2023-01-13T04:36:46.211Z,62.74
2023-01-13T04:37:46.192Z,61.66
2023-01-13T04:38:46.177Z,61.43
2023-01-13T04:39:46.185Z,61.85
2023-01-13T04:40:46.187Z,61.26
2023-01-13T04:41:46.199Z,61.40
2023-01-13T04:42:46.188Z,59.77
2023-01-13T04:43:46.211Z,62.64
2023-01-13T04:44:46.133Z,61.29
2023-01-13T04:45:46.211Z,60.61
2023-01-13T04:46:46.100Z,59.98
2023-01-13T04:47:46.107Z,58.67
2023-01-13T04:48:46.092Z,57.80
2023-01-13T04:49:46.092Z,60.41
2023-01-13T04:50:46.134Z,63.23
2023-01-13T04:51:46.079Z,60.14
2023-01-13T04:52:46.107Z,58.90
2023-01-13T04:53:46.037Z,60.88
2023-01-13T04:54:46.048Z,63.07
2023-01-13T04:55:46.055Z,59.01
2023-01-13T04:56:46.115Z,61.99
2023-01-13T04:57:46.050Z,60.53
2023-01-13T04:58:46.040Z,60.58
2023-01-13T04:59:46.028Z,61.04
2023-01-13T05:00:46.086Z,60.05
2023-01-13T05:01:46.247Z,62.95
2023-01-13T05:02:46.039Z,63.56
2023-01-13T05:03:45.985Z,61.61
2023-01-13T05:04:46.145Z,62.20
2023-01-13T05:05:45.984Z,59.13
2023-01-13T05:06:46.018Z,60.01
2023-01-13T05:07:46.031Z,59.06
2023-01-13T05:08:46.038Z,57.67
2023-01-13T05:09:45.986Z,58.82
2023-01-13T05:10:46.296Z,57.57
2023-01-13T05:11:45.877Z,56.90
2023-01-13T05:12:45.876Z,57.33
2023-01-13T05:13:45.867Z,58.31
2023-01-13T05:14:45.886Z,59.02
2023-01-13T05:15:45.884Z,57.31
2023-01-13T05:16:45.792Z,58.91
2023-01-13T05:17:45.842Z,58.43
2023-01-13T05:18:46.125Z,57.57
2023-01-13T05:19:45.899Z,58.94
2023-01-13T05:20:45.851Z,59.71
2023-01-13T05:21:46.796Z,58.47
2023-01-13T05:22:45.846Z,58.84
2023-01-13T05:23:45.889Z,57.06
2023-01-13T05:24:45.853Z,56.76
2023-01-13T05:25:45.755Z,58.41
2023-01-13T05:26:45.828Z,59.30
2023-01-13T05:27:45.923Z,56.99
2023-01-13T05:28:45.885Z,58.99
2023-01-13T05:29:45.931Z,59.00
2023-01-13T05:30:45.815Z,58.62
2023-01-13T05:31:45.877Z,58.64
2023-01-13T05:32:45.815Z,58.89
2023-01-13T05:33:45.883Z,58.76
2023-01-13T05:34:45.821Z,60.05
2023-01-13T05:35:45.803Z,60.08
2023-01-13T05:36:45.785Z,57.54
2023-01-13T05:37:45.770Z,57.19
2023-01-13T05:38:45.783Z,61.44
2023-01-13T05:39:45.805Z,68.07
2023-01-13T05:40:45.804Z,65.91
2023-01-13T05:41:45.734Z,68.88
2023-01-13T05:42:45.738Z,71.70
2023-01-13T05:43:45.755Z,60.94
2023-01-13T05:44:45.725Z,59.82
2023-01-13T05:45:45.735Z,66.86
2023-01-13T05:46:45.747Z,67.22
2023-01-13T05:47:45.611Z,59.02
2023-01-13T05:48:45.649Z,59.70
2023-01-13T05:49:45.619Z,60.13
2023-01-13T05:50:45.567Z,60.90
2023-01-13T05:51:45.630Z,59.81
2023-01-13T05:52:45.570Z,58.33
2023-01-13T05:53:45.579Z,55.39
2023-01-13T05:54:45.567Z,58.75
2023-01-13T05:55:45.569Z,57.06
2023-01-13T05:56:45.586Z,58.53
2023-01-13T05:57:45.571Z,60.99
2023-01-13T05:58:45.587Z,59.98
2023-01-13T05:59:45.531Z,59.72
2023-01-13T06:00:45.541Z,58.26
2023-01-13T06:01:45.501Z,58.97
2023-01-13T06:02:45.634Z,60.90
2023-01-13T06:03:45.501Z,59.55
2023-01-13T06:04:45.529Z,58.82
2023-01-13T06:05:45.544Z,59.92
2023-01-13T06:06:45.552Z,60.65
2023-01-13T06:07:45.639Z,62.91
2023-01-13T06:08:45.600Z,61.66
2023-01-13T06:09:45.539Z,60.28
2023-01-13T06:10:45.445Z,61.60
2023-01-13T06:11:45.556Z,59.57
2023-01-13T06:12:45.557Z,58.48
2023-01-13T06:13:45.574Z,58.83
2023-01-13T06:14:45.530Z,60.53
2023-01-13T06:15:45.598Z,59.58
2023-01-13T06:16:45.501Z,59.40
2023-01-13T06:17:45.590Z,59.78
2023-01-13T06:18:45.730Z,58.44
2023-01-13T06:19:45.580Z,57.55
2023-01-13T06:22:53.367Z,59.82
2023-01-13T06:23:53.372Z,60.42
2023-01-13T06:24:53.254Z,61.59
2023-01-13T06:25:53.330Z,61.48
2023-01-13T06:26:53.396Z,60.98
2023-01-13T06:27:53.318Z,60.16
2023-01-13T06:28:53.325Z,60.27
2023-01-13T06:29:53.253Z,59.91
2023-01-13T06:30:53.260Z,59.95
2023-01-13T06:31:53.310Z,56.72
2023-01-13T06:32:53.249Z,59.22
2023-01-13T06:33:53.290Z,59.41
2023-01-13T06:34:53.281Z,59.98
2023-01-13T06:35:53.268Z,58.90
2023-01-13T06:36:53.247Z,59.40
2023-01-13T06:37:53.227Z,57.43
2023-01-13T06:38:53.239Z,58.31
2023-01-13T06:39:53.275Z,57.12
2023-01-13T06:40:53.196Z,58.37
2023-01-13T06:41:53.183Z,57.99
2023-01-13T06:42:53.228Z,58.96
2023-01-13T06:43:53.236Z,58.82
2023-01-13T06:44:53.192Z,58.03
2023-01-13T06:45:53.284Z,58.51
2023-01-13T06:46:53.247Z,63.09
2023-01-13T06:47:53.229Z,58.67
2023-01-13T06:48:53.138Z,58.10
2023-01-13T06:49:53.146Z,58.15
2023-01-13T06:50:53.162Z,56.75
2023-01-13T06:51:53.137Z,60.60
2023-01-13T06:52:53.148Z,60.73
2023-01-13T06:53:53.117Z,57.93
2023-01-13T06:54:53.144Z,57.26
2023-01-13T06:55:53.014Z,58.50
2023-01-13T06:56:53.094Z,58.46
2023-01-13T06:57:53.009Z,59.10
2023-01-13T06:58:52.976Z,57.48
2023-01-13T06:59:52.996Z,56.83
2023-01-13T07:00:53.093Z,55.57
2023-01-13T07:01:53.161Z,54.82
2023-01-13T07:02:53.035Z,55.93
2023-01-13T07:03:52.979Z,58.38
2023-01-13T07:04:52.938Z,56.72
2023-01-13T07:05:52.958Z,57.21
2023-01-13T07:06:52.928Z,58.29
2023-01-13T07:07:53.090Z,58.40
2023-01-13T07:08:52.950Z,60.93
2023-01-13T07:09:52.926Z,58.31
2023-01-13T07:10:52.939Z,58.65
2023-01-13T07:12:25.167Z,58.69
2023-01-13T07:13:24.891Z,58.36
2023-01-13T07:13:52.965Z,60.47
2023-01-13T07:14:52.959Z,59.53
2023-01-13T07:15:53.021Z,57.31
2023-01-13T07:16:52.962Z,57.17
2023-01-13T07:17:52.949Z,59.65
2023-01-13T07:18:53.176Z,58.58
2023-01-13T07:19:53.004Z,56.72
2023-01-13T07:20:52.927Z,58.33
2023-01-13T07:21:52.933Z,57.74
2023-01-13T07:22:52.924Z,56.83
2023-01-13T07:23:52.964Z,59.73
2023-01-13T07:24:52.911Z,59.25
2023-01-13T07:25:52.890Z,58.15
2023-01-13T07:26:52.886Z,60.10
2023-01-13T07:27:53.900Z,58.92
2023-01-13T07:28:52.868Z,57.96
2023-01-13T07:29:52.958Z,57.72
2023-01-13T07:30:52.956Z,57.20
2023-01-13T07:31:52.991Z,58.65
2023-01-13T07:32:52.822Z,60.36
2023-01-13T07:33:52.932Z,57.61
2023-01-13T07:34:52.877Z,57.69
2023-01-13T07:35:52.826Z,56.29
2023-01-13T07:36:52.817Z,56.96
2023-01-13T07:37:52.798Z,55.85
2023-01-13T07:38:54.848Z,58.40
2023-01-13T07:39:53.817Z,57.60
2023-01-13T07:40:52.697Z,58.92
2023-01-13T07:41:52.710Z,63.52
2023-01-13T07:42:52.669Z,61.37
2023-01-13T07:43:53.697Z,59.49
2023-01-13T07:44:52.693Z,57.84
2023-01-13T07:45:52.713Z,60.01
2023-01-13T07:46:52.633Z,59.97
2023-01-13T07:47:52.784Z,59.23
2023-01-13T07:48:52.726Z,57.97
2023-01-13T07:49:52.745Z,59.01
2023-01-13T07:50:52.815Z,56.41
2023-01-13T07:51:52.737Z,57.18
2023-01-13T07:52:52.735Z,60.27
2023-01-13T07:53:52.721Z,58.11
2023-01-13T07:54:52.787Z,58.77
2023-01-13T07:55:52.686Z,57.43
2023-01-13T07:56:52.806Z,57.15
2023-01-13T07:57:52.668Z,58.02
2023-01-13T07:58:52.723Z,58.92
2023-01-13T07:59:52.709Z,58.27
2023-01-13T08:00:52.797Z,57.66
2023-01-13T08:01:52.896Z,56.50
2023-01-13T08:02:52.736Z,56.03
2023-01-13T08:03:52.660Z,54.95
2023-01-13T08:04:52.733Z,55.65
2023-01-13T08:05:52.679Z,55.66
2023-01-13T08:06:52.649Z,56.48
2023-01-13T08:07:52.611Z,57.02
2023-01-13T08:08:52.616Z,57.18
2023-01-13T08:09:52.570Z,56.67
2023-01-13T08:10:52.555Z,58.58
2023-01-13T08:11:52.598Z,57.45
2023-01-13T08:12:57.014Z,57.61
2023-01-13T08:13:52.640Z,57.26
2023-01-13T08:14:52.560Z,57.15
2023-01-13T08:15:52.616Z,59.33
2023-01-13T08:16:52.622Z,56.95
2023-01-13T08:17:52.691Z,56.71
2023-01-13T08:18:52.562Z,56.62
2023-01-13T08:19:52.641Z,55.32
2023-01-13T08:20:52.642Z,55.95
2023-01-13T08:21:52.478Z,57.77
2023-01-13T08:22:52.533Z,56.61
2023-01-13T08:23:52.773Z,56.30
2023-01-13T08:24:52.627Z,56.51
2023-01-13T08:25:52.490Z,56.96
2023-01-13T08:26:52.473Z,55.99
2023-01-13T08:27:52.491Z,58.19
2023-01-13T08:28:52.505Z,56.51
2023-01-13T08:29:52.478Z,57.17
2023-01-13T08:30:52.486Z,58.21
2023-01-13T08:31:52.488Z,57.10
2023-01-13T08:32:52.668Z,55.96
2023-01-13T08:33:52.405Z,56.89
2023-01-13T08:34:52.485Z,54.48
2023-01-13T08:35:52.410Z,53.14
2023-01-13T08:36:52.541Z,56.79
2023-01-13T08:37:52.437Z,61.04
2023-01-13T08:38:52.445Z,56.58
2023-01-13T08:39:52.475Z,56.26
2023-01-13T08:40:52.529Z,54.46
2023-01-13T08:41:52.402Z,55.25
2023-01-13T08:42:52.506Z,54.83
2023-01-13T08:43:52.420Z,55.60
2023-01-13T08:44:52.367Z,57.39
2023-01-13T08:45:52.337Z,60.68
2023-01-13T08:46:52.283Z,56.70
2023-01-13T08:47:52.237Z,55.65
2023-01-13T08:48:52.275Z,56.37
2023-01-13T08:49:52.241Z,57.64
2023-01-13T08:50:52.274Z,55.40
2023-01-13T08:51:52.218Z,56.28
2023-01-13T08:52:52.213Z,55.61
2023-01-13T08:53:52.211Z,57.45
2023-01-13T08:54:52.218Z,54.19
2023-01-13T08:55:52.237Z,57.10
2023-01-13T08:56:52.447Z,56.00
2023-01-13T08:57:54.447Z,56.61
2023-01-13T08:58:52.305Z,58.74
2023-01-13T08:59:52.175Z,56.73
2023-01-13T09:00:52.330Z,56.14
2023-01-13T09:01:52.323Z,55.19
2023-01-13T09:02:52.222Z,56.33
2023-01-13T09:03:52.399Z,54.95
2023-01-13T09:04:52.273Z,56.12
2023-01-13T09:05:52.314Z,56.31
2023-01-13T09:06:52.293Z,55.09
2023-01-13T09:07:52.231Z,55.29
2023-01-13T09:08:52.272Z,55.62
2023-01-13T09:09:52.229Z,55.11
2023-01-13T09:10:52.092Z,55.90
2023-01-13T09:11:52.194Z,56.95
2023-01-13T09:12:52.258Z,57.62
2023-01-13T09:13:52.152Z,58.65
2023-01-13T09:14:52.138Z,57.40
2023-01-13T09:15:52.172Z,55.50
2023-01-13T09:16:52.182Z,56.38
2023-01-13T09:17:52.184Z,58.13
2023-01-13T09:18:52.162Z,57.52
2023-01-13T09:19:52.125Z,57.93
2023-01-13T09:20:52.142Z,55.79
2023-01-13T09:21:52.145Z,57.61
2023-01-13T09:22:52.151Z,56.81
2023-01-13T09:23:53.145Z,56.64
2023-01-13T09:24:52.117Z,57.01
2023-01-13T09:25:52.091Z,57.67
2023-01-13T09:26:52.125Z,55.32
2023-01-13T09:27:52.064Z,55.42
2023-01-13T09:28:52.184Z,57.26
2023-01-13T09:29:52.042Z,57.40
2023-01-13T09:30:52.186Z,59.20
2023-01-13T09:31:52.092Z,58.56
2023-01-13T09:32:52.020Z,58.08
2023-01-13T09:33:52.134Z,56.69
2023-01-13T09:34:52.173Z,54.90
2023-01-13T09:35:52.020Z,58.19
2023-01-13T09:36:52.002Z,58.34
2023-01-13T09:37:51.993Z,57.62
2023-01-13T09:38:51.991Z,61.52
2023-01-13T09:39:52.015Z,56.65
2023-01-13T09:40:52.040Z,56.79
2023-01-13T09:41:52.013Z,58.48
2023-01-13T09:42:51.962Z,57.36
2023-01-13T09:43:52.011Z,57.63
2023-01-13T09:44:51.938Z,56.39
2023-01-13T09:45:52.036Z,56.45
2023-01-13T09:46:51.934Z,56.43
2023-01-13T09:47:51.971Z,57.81
2023-01-13T09:48:52.317Z,60.35
2023-01-13T09:49:51.937Z,60.36
2023-01-13T09:50:51.944Z,59.91
2023-01-13T09:51:51.894Z,57.45
2023-01-13T09:52:51.892Z,58.26
2023-01-13T09:53:51.906Z,55.75
2023-01-13T09:55:09.066Z,57.08
2023-01-13T09:55:52.823Z,56.81
2023-01-13T09:56:51.833Z,58.51
2023-01-13T09:57:51.854Z,55.24
2023-01-13T09:58:51.764Z,58.54
2023-01-13T09:59:51.776Z,56.39
2023-01-13T10:00:51.755Z,57.86
2023-01-13T10:01:51.768Z,56.24
2023-01-13T10:02:51.716Z,56.48
2023-01-13T10:03:51.773Z,58.81
2023-01-13T10:04:51.730Z,57.34
2023-01-13T10:05:51.725Z,55.03
2023-01-13T10:06:51.747Z,57.76
2023-01-13T10:07:51.700Z,56.71
2023-01-13T10:08:51.712Z,57.24
2023-01-13T10:09:51.657Z,58.40
2023-01-13T10:10:51.670Z,59.15
2023-01-13T10:11:51.717Z,58.16
2023-01-13T10:12:51.721Z,57.22
2023-01-13T10:13:51.671Z,60.58
2023-01-13T10:14:51.747Z,58.49
2023-01-13T10:15:51.749Z,57.61
2023-01-13T10:16:51.741Z,58.75
2023-01-13T10:17:51.753Z,58.60
2023-01-13T10:18:51.693Z,59.90
2023-01-13T10:19:51.701Z,58.72
2023-01-13T10:20:51.723Z,57.47
2023-01-13T10:21:51.699Z,62.06
2023-01-13T10:22:51.667Z,59.94
2023-01-13T10:23:51.722Z,58.64
2023-01-13T10:24:51.684Z,58.48
2023-01-13T10:25:51.769Z,59.57
2023-01-13T10:26:51.638Z,58.99
2023-01-13T10:27:51.781Z,57.51
2023-01-13T10:28:51.943Z,59.45
2023-01-13T10:29:51.652Z,56.98
2023-01-13T10:30:51.672Z,59.55
2023-01-13T10:31:51.686Z,59.43
2023-01-13T10:32:51.592Z,58.52
2023-01-13T10:33:51.647Z,58.47
2023-01-13T10:34:51.659Z,56.74
2023-01-13T10:35:51.678Z,58.71
2023-01-13T10:36:51.585Z,61.64
2023-01-13T10:37:51.614Z,59.00
2023-01-13T10:38:51.608Z,59.10
2023-01-13T10:43:44.683Z,57.47
2023-01-13T10:45:16.968Z,60.02
2023-01-13T10:53:09.051Z,59.51
2023-01-13T10:54:08.997Z,60.92
2023-01-13T10:55:08.955Z,59.84
2023-01-13T10:56:08.976Z,59.89
2023-01-13T11:00:40.411Z,58.24
2023-01-13T11:01:40.269Z,56.05
2023-01-13T11:07:06.231Z,55.58
2023-01-13T11:08:06.153Z,57.77
2023-01-13T11:09:06.270Z,56.41
2023-01-13T11:10:06.142Z,59.73
2023-01-13T11:11:06.240Z,57.41
2023-01-13T11:12:06.145Z,53.65
2023-01-13T11:13:06.205Z,55.34
2023-01-13T11:14:08.491Z,55.72
2023-01-13T11:15:06.140Z,57.52
2023-01-13T11:16:06.189Z,59.77
2023-01-13T11:17:06.161Z,60.15
2023-01-13T11:18:06.103Z,59.09
2023-01-13T11:19:06.119Z,60.90
2023-01-13T11:20:06.113Z,59.61
2023-01-13T11:21:06.090Z,57.77
2023-01-13T11:22:06.088Z,58.37
2023-01-13T11:23:06.550Z,59.12
2023-01-13T11:24:06.033Z,59.56
2023-01-13T11:25:06.052Z,59.84
2023-01-13T11:26:06.030Z,60.01
2023-01-13T11:27:06.051Z,59.06
2023-01-13T11:28:06.048Z,56.28
2023-01-13T11:29:06.004Z,60.57
2023-01-13T11:33:04.667Z,60.57
2023-01-13T11:34:04.446Z,60.15
2023-01-13T11:35:04.444Z,59.25
2023-01-13T11:36:04.432Z,59.33
2023-01-13T11:37:04.400Z,57.80
2023-01-13T11:38:04.630Z,58.72
2023-01-13T11:39:04.429Z,61.48
2023-01-13T11:40:04.444Z,57.67
2023-01-13T11:41:04.412Z,56.19
2023-01-13T11:42:04.301Z,62.54
2023-01-13T11:43:04.316Z,59.74
2023-01-13T11:44:04.306Z,59.71
2023-01-13T11:45:04.281Z,60.25
2023-01-13T11:46:04.302Z,57.59
2023-01-13T11:47:04.296Z,60.21
2023-01-13T11:48:04.246Z,60.51
2023-01-13T11:49:04.264Z,58.89
2023-01-13T11:50:04.299Z,63.25
2023-01-13T11:51:04.235Z,64.13
2023-01-13T11:52:36.269Z,61.57
2023-01-13T11:53:04.205Z,60.19
2023-01-13T11:54:04.271Z,59.35
2023-01-13T11:55:04.247Z,61.43
2023-01-13T11:56:04.203Z,59.04
2023-01-13T11:57:05.156Z,60.42
2023-01-13T11:58:04.179Z,60.40
2023-01-13T11:59:04.166Z,61.28
2023-01-13T12:00:04.284Z,60.27
2023-01-13T12:01:04.290Z,58.02
2023-01-13T12:02:04.312Z,61.58
2023-01-13T12:03:04.290Z,60.73
2023-01-13T12:04:04.218Z,59.88
2023-01-13T12:05:04.295Z,59.58
2023-01-13T12:06:04.234Z,61.88
2023-01-13T12:07:04.219Z,62.60
2023-01-13T12:08:04.191Z,60.71
2023-01-13T12:09:04.199Z,60.91
2023-01-13T12:10:05.086Z,59.62
2023-01-13T12:11:04.173Z,59.58
2023-01-13T12:12:04.163Z,62.07
2023-01-13T12:13:04.159Z,62.08
2023-01-13T12:14:04.177Z,59.62
2023-01-13T12:15:04.149Z,61.01
2023-01-13T12:16:04.201Z,58.59
2023-01-13T12:17:04.237Z,61.96
2023-01-13T12:18:04.255Z,60.52
2023-01-13T12:19:04.214Z,60.32
2023-01-13T12:20:04.127Z,61.97
2023-01-13T12:21:04.209Z,61.01
2023-01-13T12:22:04.141Z,57.92
2023-01-13T12:23:04.136Z,59.41
2023-01-13T12:24:04.158Z,59.34
2023-01-13T12:25:04.159Z,60.63
2023-01-13T12:26:04.212Z,60.16
2023-01-13T12:27:04.253Z,60.88
2023-01-13T12:28:04.176Z,60.72
2023-01-13T12:29:04.209Z,60.39
2023-01-13T12:30:04.148Z,60.82
2023-01-13T12:31:04.163Z,60.68
2023-01-13T12:32:04.089Z,61.23
2023-01-13T12:33:04.057Z,60.71
2023-01-13T12:34:04.034Z,61.12
2023-01-13T12:35:04.003Z,60.70
2023-01-13T12:36:03.918Z,62.60
2023-01-13T12:37:03.905Z,59.23
2023-01-13T12:38:04.344Z,61.63
2023-01-13T12:39:03.923Z,61.82
2023-01-13T12:40:03.911Z,59.73
2023-01-13T12:41:03.886Z,60.27
2023-01-13T12:42:03.882Z,61.07
2023-01-13T12:43:03.895Z,61.29
2023-01-13T12:44:03.930Z,60.99
2023-01-13T12:45:03.879Z,61.27
2023-01-13T12:46:03.891Z,61.35
2023-01-13T12:47:03.863Z,61.87
2023-01-13T12:48:03.827Z,61.29
2023-01-13T12:49:04.035Z,61.97
2023-01-13T12:50:03.874Z,61.83
2023-01-13T12:51:03.993Z,60.15
2023-01-13T12:52:03.926Z,59.33
2023-01-13T12:53:03.941Z,58.89
2023-01-13T12:54:03.856Z,59.62
2023-01-13T12:55:03.907Z,62.15
2023-01-13T12:56:03.919Z,60.66
2023-01-13T12:58:59.428Z,61.48
2023-01-13T12:59:59.229Z,60.42
2023-01-13T14:17:36.778Z,61.15
2023-01-13T14:28:12.515Z,65.30
2023-01-13T14:29:11.410Z,64.01
2023-01-13T14:33:04.524Z,61.82
2023-01-13T14:34:31.365Z,62.09
2023-01-13T14:35:04.413Z,60.54
2023-01-13T14:36:03.297Z,60.07
2023-01-13T14:37:03.632Z,58.80
2023-01-13T14:38:03.194Z,60.28
2023-01-13T14:39:03.513Z,59.07
2023-01-13T14:40:03.560Z,59.24
2023-01-13T14:41:03.155Z,58.86
2023-01-13T14:42:04.610Z,60.30
2023-01-13T14:43:03.209Z,62.13
2023-01-13T14:44:04.266Z,61.90
2023-01-13T14:45:03.828Z,61.24
2023-01-13T14:46:03.215Z,61.31
2023-01-13T14:47:03.393Z,62.96
2023-01-13T14:48:03.270Z,62.63